Time;durP1;ratioP1;P1;durP2;ratioP2;P2;SDS_P1;SDS_P2;PMS_P1;PMS_P2;Temp;Humidity;BMP_temperature;BMP_pressure;BME280_temperature;BME280_humidity;BME280_pressure;Samples;Min_cycle;Max_cycle;Signal;HPM_P1;HPM_P2
2024/04/12 00:00:50;;;;;;;17.10;6.88;;;;;;;15.36;100.00;101459.03;11329603;26;20012;-90
2024/04/12 00:06:20;;;;;;;18.02;7.22;;;;;;;15.33;100.00;101447.50;11346216;26;20025;-91
2024/04/12 00:11:46;;;;;;;17.23;7.35;;;;;;;15.28;100.00;101455.47;11327610;26;20002;-90
2024/04/12 00:17:15;;;;;;;19.98;7.55;;;;;;;15.24;100.00;101444.75;11361772;26;20011;-90
2024/04/12 00:22:39;;;;;;;18.83;7.38;;;;;;;15.25;100.00;101449.19;11346109;26;20002;-91
2024/04/12 00:28:05;;;;;;;17.67;7.57;;;;;;;15.09;100.00;101446.44;11317009;26;20315;-90
2024/04/12 00:33:34;;;;;;;15.93;8.02;;;;;;;15.12;100.00;101433.16;11341672;26;19997;-92
2024/04/12 00:39:00;;;;;;;19.20;7.82;;;;;;;15.09;100.00;101427.84;11326379;26;20061;-93
2024/04/12 00:44:29;;;;;;;17.58;7.35;;;;;;;14.97;100.00;101429.47;11373964;26;20013;-92
2024/04/12 00:50:00;;;;;;;17.30;8.38;;;;;;;14.83;100.00;101433.81;11320194;26;20078;-92
2024/04/12 00:55:25;;;;;;;19.90;7.78;;;;;;;14.92;100.00;101417.91;11327221;26;20039;-91
2024/04/12 01:00:49;;;;;;;16.23;7.97;;;;;;;14.94;100.00;101417.06;11365242;26;20076;-92
2024/04/12 01:06:18;;;;;;;19.95;8.57;;;;;;;14.91;100.00;101416.13;11316144;26;20166;-91
2024/04/12 01:12:07;;;;;;;21.42;7.68;;;;;;;14.91;100.00;101416.13;11353582;26;20074;-87
2024/04/12 01:17:37;;;;;;;14.63;8.00;;;;;;;14.81;100.00;101412.50;11356315;26;20006;-91
2024/04/12 01:23:05;;;;;;;19.50;9.25;;;;;;;14.72;100.00;101412.44;11372657;26;20291;-91
2024/04/12 01:28:35;;;;;;;22.73;9.10;;;;;;;14.63;100.00;101415.91;11351535;26;20002;-93
2024/04/12 01:34:00;;;;;;;15.63;8.20;;;;;;;14.47;100.00;101418.38;11332925;26;19998;-91
2024/04/12 01:39:28;;;;;;;20.63;8.48;;;;;;;14.51;100.00;101420.19;11367566;26;20009;-90
2024/04/12 01:50:41;;;;;;;18.73;9.63;;;;;;;14.56;100.00;101415.84;11324573;26;20415;-90
2024/04/12 01:56:09;;;;;;;19.98;9.55;;;;;;;14.48;100.00;101417.50;11356911;26;19998;-90
2024/04/12 02:01:37;;;;;;;17.00;9.13;;;;;;;14.41;100.00;101418.31;11370282;26;20034;-91
2024/04/12 02:07:02;;;;;;;16.73;9.00;;;;;;;14.38;100.00;101418.28;11338650;26;20511;-85
2024/04/12 02:12:29;;;;;;;18.88;9.82;;;;;;;14.42;100.00;101417.44;11348482;26;20059;-90
2024/04/12 02:17:57;;;;;;;15.73;8.70;;;;;;;14.38;100.00;101413.84;11351705;26;20005;-90
2024/04/12 02:23:23;;;;;;;21.80;9.68;;;;;;;14.22;100.00;101418.09;11344104;26;20101;-91
2024/04/12 02:28:49;;;;;;;16.05;9.10;;;;;;;14.30;100.00;101413.75;11333767;26;20038;-91
2024/04/12 02:34:18;;;;;;;14.70;8.13;;;;;;;14.31;100.00;101404.91;11358986;26;19998;-91
2024/04/12 02:39:43;;;;;;;14.38;8.65;;;;;;;14.29;100.00;101409.31;11374464;26;20244;-91
2024/04/12 02:45:11;;;;;;;19.92;9.25;;;;;;;14.17;100.00;101409.19;11367625;26;20331;-92
2024/04/12 02:50:39;;;;;;;20.13;9.00;;;;;;;14.22;100.00;101407.47;11335740;26;19998;-92
2024/04/12 02:56:09;;;;;;;18.08;8.43;;;;;;;14.24;100.00;101403.03;11331522;26;20018;-93
2024/04/12 03:01:33;;;;;;;17.70;9.02;;;;;;;14.19;100.00;101411.84;11367375;26;20006;-94
2024/04/12 03:07:12;;;;;;;14.20;8.73;;;;;;;14.15;100.00;101410.94;11319432;26;19994;-91
2024/04/12 03:12:37;;;;;;;14.50;8.82;;;;;;;13.94;100.00;101424.84;11371998;26;20008;-91
2024/04/12 03:18:03;;;;;;;17.45;9.55;;;;;;;13.84;100.00;101425.59;11357454;26;20001;-92
2024/04/12 03:23:31;;;;;;;18.48;9.18;;;;;;;13.88;100.00;101415.91;11329801;26;19998;-91
2024/04/12 03:28:59;;;;;;;17.25;9.15;;;;;;;13.91;100.00;101416.81;11341956;26;20002;-92
2024/04/12 03:34:24;;;;;;;16.88;9.40;;;;;;;13.95;100.00;101423.06;11318822;26;20365;-91
2024/04/12 03:40:00;;;;;;;16.25;9.40;;;;;;;13.86;100.00;101420.28;11332076;26;20065;-92
2024/04/12 03:45:24;;;;;;;18.88;9.32;;;;;;;13.86;100.00;101414.97;11320649;26;19998;-92
2024/04/12 03:50:48;;;;;;;19.02;9.75;;;;;;;13.77;100.00;101421.09;11353739;26;20318;-93
2024/04/12 03:56:15;;;;;;;17.60;9.50;;;;;;;13.77;100.00;101423.75;11342724;26;19998;-92
2024/04/12 04:01:44;;;;;;;14.57;10.00;;;;;;;13.85;100.00;101437.97;11357766;26;20027;-93
2024/04/12 04:07:10;;;;;;;14.40;8.73;;;;;;;13.92;100.00;101438.94;11353779;26;19997;-92
2024/04/12 04:12:45;;;;;;;16.83;9.15;;;;;;;13.99;100.00;101440.81;11350468;26;19998;-93
2024/04/12 04:18:11;;;;;;;14.90;8.68;;;;;;;14.14;100.00;101441.00;11384351;26;20006;-92
2024/04/12 04:23:39;;;;;;;14.13;7.38;;;;;;;14.53;100.00;101445.00;11357800;26;20009;-92
2024/04/12 04:29:09;;;;;;;13.03;7.40;;;;;;;14.93;100.00;101455.16;11304009;26;20411;-94
2024/04/12 04:34:33;;;;;;;15.02;7.43;;;;;;;15.34;100.00;101458.16;11367216;26;20257;-92
2024/04/12 04:39:59;;;;;;;10.95;6.95;;;;;;;15.66;100.00;101463.72;11321505;26;20291;-94
2024/04/12 04:45:31;;;;;;;10.23;5.97;;;;;;;16.11;100.00;101467.50;11339506;26;20002;-94
2024/04/12 04:50:59;;;;;;;11.75;6.22;;;;;;;16.57;100.00;101469.44;11358947;26;20014;-93
2024/04/12 04:56:30;;;;;;;15.32;7.10;;;;;;;17.09;100.00;101470.44;11324392;26;19998;-93
2024/04/12 05:02:04;;;;;;;9.73;6.20;;;;;;;17.62;100.00;101468.63;11299617;26;20014;-93
2024/04/12 05:07:34;;;;;;;10.38;5.72;;;;;;;18.17;100.00;101475.59;11336755;26;20005;-91
2024/04/12 05:13:03;;;;;;;8.60;5.20;;;;;;;18.68;100.00;101471.81;11386445;26;20001;-90
2024/04/12 05:18:31;;;;;;;12.02;5.90;;;;;;;19.32;100.00;101476.66;11325165;26;20146;-87
2024/04/12 05:23:55;;;;;;;12.98;6.60;;;;;;;19.81;100.00;101471.75;11324445;26;20013;-88
2024/04/12 05:29:19;;;;;;;15.77;7.38;;;;;;;20.34;100.00;101458.63;11249778;26;20010;-91
2024/04/12 05:34:46;;;;;;;14.88;6.00;;;;;;;20.85;100.00;101465.94;11288497;26;20073;-88
2024/04/12 05:40:21;;;;;;;17.50;7.68;;;;;;;21.50;100.00;101457.72;11325835;26;20010;-88
2024/04/12 05:45:47;;;;;;;10.57;5.78;;;;;;;22.10;100.00;101475.38;11355858;26;20580;-89
2024/04/12 05:51:15;;;;;;;17.80;7.78;;;;;;;22.73;100.00;101485.69;11350269;26;20015;-90
2024/04/12 05:56:42;;;;;;;13.15;6.20;;;;;;;23.31;100.00;101486.97;11333330;26;20569;-89
2024/04/12 06:02:06;;;;;;;13.32;6.00;;;;;;;23.86;100.00;101477.47;11347361;26;20014;-89
2024/04/12 06:07:38;;;;;;;11.45;5.43;;;;;;;24.23;96.16;101473.69;11319046;26;19998;-88
2024/04/12 06:13:06;;;;;;;19.50;5.38;;;;;;;24.68;93.22;101475.06;11345409;26;20001;-89
2024/04/12 06:18:30;;;;;;;14.75;4.55;;;;;;;25.19;86.42;101484.22;11395842;26;20001;-89
2024/04/12 06:23:57;;;;;;;9.27;4.82;;;;;;;25.43;79.73;101479.78;11312804;26;20337;-89
2024/04/12 06:29:22;;;;;;;12.75;5.43;;;;;;;25.34;74.62;101494.50;11365382;26;19997;-90
2024/04/12 06:34:46;;;;;;;9.40;4.90;;;;;;;25.76;71.60;101494.88;11309486;26;20466;-89
2024/04/12 06:40:15;;;;;;;11.30;4.72;;;;;;;26.47;65.21;101490.47;11333652;26;19998;-89
2024/04/12 06:45:41;;;;;;;14.50;5.00;;;;;;;26.78;56.77;101492.88;11367957;26;20001;-86
2024/04/12 06:51:11;;;;;;;9.05;5.22;;;;;;;27.14;53.13;101490.53;11337005;26;20431;-89
2024/04/12 06:56:38;;;;;;;10.57;4.60;;;;;;;27.48;49.92;101500.84;11347584;26;20002;-90
2024/04/12 07:02:02;;;;;;;8.68;4.55;;;;;;;27.69;47.27;101495.41;11366874;26;20031;-91
2024/04/12 07:07:28;;;;;;;11.93;4.95;;;;;;;28.18;45.85;101492.34;11361272;26;20002;-89
2024/04/12 07:12:55;;;;;;;12.05;4.30;;;;;;;28.59;43.95;101493.13;11284517;26;19999;-88
2024/04/12 07:18:22;;;;;;;10.82;4.97;;;;;;;28.78;42.28;101491.34;11301548;26;19998;-83
2024/04/12 07:23:48;;;;;;;11.48;5.22;;;;;;;28.96;42.36;101490.44;11300732;26;20018;-84
2024/04/12 07:29:15;;;;;;;;;;;;;;;28.95;41.57;101488.66;11257308;26;19999;-87
2024/04/12 07:34:48;;;;;;;11.23;5.03;;;;;;;28.98;42.11;101491.25;11318273;26;19930;-89
2024/04/12 07:40:18;;;;;;;13.13;4.95;;;;;;;28.80;42.61;101500.31;11398063;26;20009;-90
2024/04/12 07:45:46;;;;;;;21.17;5.30;;;;;;;28.63;43.96;101503.78;11310080;26;20009;-92
2024/04/12 07:51:12;;;;;;;19.35;5.68;;;;;;;28.66;43.73;101497.31;11353557;26;20009;-90
2024/04/12 07:56:37;;;;;;;12.73;4.70;;;;;;;29.16;42.95;101500.31;11300402;26;20006;-90
2024/04/12 08:02:17;;;;;;;8.18;4.70;;;;;;;29.60;42.18;101507.13;11336097;26;20507;-89
2024/04/12 08:07:41;;;;;;;14.00;5.25;;;;;;;29.54;42.83;101514.72;11322006;26;20002;-89
2024/04/12 08:13:10;;;;;;;11.63;5.60;;;;;;;29.56;44.08;101518.25;11312567;26;19998;-85
2024/04/12 08:18:43;;;;;;;14.95;5.97;;;;;;;30.09;44.52;101527.25;11381789;26;20005;-93
2024/04/12 08:24:10;;;;;;;18.08;5.82;;;;;;;30.89;43.40;101524.66;11301392;26;20445;-92
2024/04/12 08:29:34;;;;;;;9.10;5.22;;;;;;;31.14;42.56;101517.81;11326012;26;20057;-92
2024/04/12 08:35:06;;;;;;;15.85;5.50;;;;;;;31.22;41.64;101518.25;11360187;26;20007;-87
2024/04/12 08:40:37;;;;;;;19.80;5.38;;;;;;;31.28;41.76;101520.63;11266149;26;19998;-89
2024/04/12 08:46:03;;;;;;;14.07;5.60;;;;;;;31.55;40.67;101523.56;11299924;26;20006;-89
2024/04/12 08:51:32;;;;;;;21.55;7.20;;;;;;;31.55;39.87;101526.31;11275431;26;20017;-92
2024/04/12 08:57:00;;;;;;;10.30;5.10;;;;;;;30.40;41.39;101542.84;11252793;26;20054;-87
2024/04/12 09:02:26;;;;;;;17.95;5.50;;;;;;;29.77;42.96;101547.13;11272852;26;20010;-88
2024/04/12 09:07:56;;;;;;;17.27;5.47;;;;;;;29.55;43.64;101536.44;11297807;26;19998;-88
2024/04/12 09:13:22;;;;;;;16.48;5.13;;;;;;;29.93;44.24;101531.75;11329408;26;20017;-86
2024/04/12 09:18:53;;;;;;;12.80;5.17;;;;;;;30.41;43.01;101527.34;11284497;26;20029;-86
2024/04/12 09:24:22;;;;;;;15.10;4.95;;;;;;;30.64;41.59;101535.19;11294969;26;19993;-86
2024/04/12 09:29:54;;;;;;;14.05;5.00;;;;;;;31.07;40.58;101522.75;11334076;26;20016;-90
2024/04/12 09:35:21;;;;;;;9.32;4.32;;;;;;;31.17;39.33;101523.13;11366043;26;20009;-90
2024/04/12 09:41:02;;;;;;;12.88;5.78;;;;;;;31.66;38.37;101522.00;11344912;26;20078;-91
2024/04/12 09:46:46;;;;;;;15.32;4.90;;;;;;;32.11;37.14;101525.59;11358407;26;20063;-89
2024/04/12 10:37:58;;;;;;;14.50;5.97;;;;;;;32.40;36.18;101545.69;11101988;26;20015;-89
2024/04/12 10:43:23;;;;;;;13.88;5.13;;;;;;;32.12;36.91;101548.34;11101579;26;20067;-92
2024/04/12 10:48:49;;;;;;;17.58;5.20;;;;;;;31.83;37.24;101551.03;11053213;26;20365;-84
2024/04/12 10:54:14;;;;;;;12.80;5.22;;;;;;;31.41;38.14;101553.53;11081249;26;20487;-87
2024/04/12 10:59:42;;;;;;;16.98;5.57;;;;;;;30.57;39.20;101562.88;11099146;26;20467;-87
2024/04/12 11:05:24;;;;;;;18.02;6.38;;;;;;;29.96;40.51;101569.75;11272269;26;20002;-90
2024/04/12 11:11:15;;;;;;;23.70;6.10;;;;;;;29.81;41.53;101561.44;11262294;26;20026;-90
2024/04/12 11:33:53;;;;;;;13.88;5.40;;;;;;;29.97;40.58;101537.94;11299081;26;20021;-90
2024/04/12 11:39:25;;;;;;;17.13;6.05;;;;;;;30.09;41.03;101530.00;11313751;26;19999;-87
2024/04/12 11:44:53;;;;;;;14.63;5.55;;;;;;;29.73;41.64;101539.19;11284857;26;19994;-88
2024/04/12 11:50:21;;;;;;;15.35;5.68;;;;;;;29.47;42.40;101532.38;11299364;26;20010;-87
2024/04/12 11:55:51;;;;;;;21.17;7.20;;;;;;;29.29;42.86;101524.13;11296319;26;20018;-87
2024/04/12 12:01:16;;;;;;;14.82;6.45;;;;;;;29.11;43.33;101533.19;11298690;26;20006;-88
2024/04/12 12:06:41;;;;;;;15.02;5.47;;;;;;;29.04;42.99;101520.84;11302768;26;19995;-85
2024/04/12 12:12:12;;;;;;;15.77;6.07;;;;;;;29.04;42.73;101522.69;11207022;26;20014;-88
2024/04/12 12:17:37;;;;;;;17.63;5.60;;;;;;;29.03;42.23;101518.19;11181996;26;19998;-87
2024/04/12 12:23:01;;;;;;;14.07;5.20;;;;;;;28.95;41.48;101515.84;11201609;26;20344;-87
2024/04/12 12:28:28;;;;;;;14.63;6.18;;;;;;;28.96;41.93;101517.63;11221188;26;20007;-85
2024/04/12 12:33:53;;;;;;;15.45;5.72;;;;;;;28.70;42.86;101501.66;11199762;26;19999;-84
2024/04/12 12:39:19;;;;;;;19.40;6.60;;;;;;;28.39;43.66;101508.53;11213621;26;20014;-88
2024/04/12 12:44:46;;;;;;;18.83;6.68;;;;;;;28.14;44.93;101505.19;11281825;26;20034;-92
2024/04/12 12:50:19;;;;;;;;;;;;;;;28.02;46.78;101498.47;11227707;26;20007;-93
2024/04/12 12:55:43;;;;;;;18.95;6.25;;;;;;;28.00;47.79;101488.59;11224045;26;19996;-90
2024/04/12 13:01:11;;;;;;;18.00;5.88;;;;;;;28.23;46.76;101483.03;11216702;26;20003;-88
2024/04/12 13:06:35;;;;;;;18.70;6.55;;;;;;;28.23;46.82;101491.19;11204497;26;20099;-92
2024/04/12 13:12:01;;;;;;;22.83;6.43;;;;;;;28.14;46.01;101481.63;11287271;26;20010;-91
2024/04/12 13:17:30;;;;;;;18.38;6.38;;;;;;;28.19;45.42;101478.69;11272431;26;20011;-91
2024/04/12 13:23:02;;;;;;;14.07;5.88;;;;;;;28.18;44.94;101481.47;11244161;26;20453;-89
2024/04/12 13:28:29;;;;;;;;;;;;;;;27.95;44.38;101475.25;11247249;26;20030;-88
2024/04/12 13:33:57;;;;;;;15.05;5.93;;;;;;;27.46;44.68;101465.63;11314933;26;19923;-86
2024/04/12 13:39:24;;;;;;;15.30;6.32;;;;;;;27.10;45.12;101472.63;11347603;26;20027;-87
2024/04/12 13:50:58;;;;;;;20.00;6.43;;;;;;;27.12;46.92;101478.84;11304770;26;20003;-88
2024/04/12 13:56:25;;;;;;;21.92;6.13;;;;;;;27.06;47.54;101482.69;11299900;26;20002;-87
2024/04/12 14:01:49;;;;;;;15.50;6.03;;;;;;;26.93;48.87;101474.19;11321852;26;20002;-87
2024/04/12 14:07:20;;;;;;;16.35;6.97;;;;;;;26.80;51.42;101474.72;11313755;26;20032;-88
2024/04/12 14:12:44;;;;;;;20.10;7.50;;;;;;;26.53;53.81;101480.28;11275523;26;20010;-89
2024/04/12 14:18:09;;;;;;;19.42;7.70;;;;;;;26.62;54.86;101481.75;11322178;26;19998;-88
2024/04/12 14:23:36;;;;;;;22.33;7.38;;;;;;;26.77;55.79;101475.75;11371660;26;20033;-87
2024/04/12 14:29:01;;;;;;;22.63;7.97;;;;;;;26.86;56.15;101471.75;11323908;26;20002;-88
2024/04/12 14:34:29;;;;;;;20.55;7.25;;;;;;;27.10;57.39;101478.94;11395532;26;20001;-89
2024/04/12 14:39:57;;;;;;;31.00;8.23;;;;;;;27.28;58.64;101469.13;11349044;26;20011;-88
2024/04/12 14:45:23;;;;;;;29.25;9.88;;;;;;;27.30;59.88;101475.38;11312729;26;20079;-86
2024/04/12 14:50:49;;;;;;;30.75;8.45;;;;;;;27.04;62.10;101472.88;11405544;26;20041;-88
2024/04/12 14:56:18;;;;;;;26.92;7.40;;;;;;;26.78;63.34;101477.47;11272932;26;20003;-88
2024/04/12 15:01:44;;;;;;;22.88;9.70;;;;;;;26.61;64.70;101479.09;11286523;26;20740;-88
2024/04/12 15:52:25;;;;;;;21.05;8.88;;;;;;;23.76;91.49;101504.69;11272965;26;20026;-89
2024/04/12 16:15:02;;;;;;;31.55;10.20;;;;;;;22.96;98.49;101502.22;11079086;26;20347;-90
2024/04/12 16:20:30;;;;;;;24.98;8.82;;;;;;;22.97;98.33;101508.50;11101420;26;20000;-88
2024/04/12 16:25:55;;;;;;;33.15;11.30;;;;;;;22.74;100.00;101510.81;11137197;26;20004;-86
2024/04/12 16:31:20;;;;;;;22.48;10.60;;;;;;;22.55;100.00;101515.69;11056276;26;20123;-87
2024/04/12 16:36:49;;;;;;;28.80;10.00;;;;;;;22.42;100.00;101511.47;11043879;26;20001;-86
2024/04/12 16:42:13;;;;;;;34.88;12.10;;;;;;;22.22;100.00;101510.09;11123610;26;20464;-88
2024/04/12 16:47:37;;;;;;;29.73;9.85;;;;;;;22.05;100.00;101514.06;11306901;26;20446;-88
2024/04/12 16:53:05;;;;;;;33.25;10.98;;;;;;;21.93;100.00;101509.75;11256985;26;20040;-87
2024/04/12 16:58:29;;;;;;;30.97;10.37;;;;;;;21.82;100.00;101514.44;11266135;26;20523;-88
2024/04/12 17:03:54;;;;;;;26.98;10.50;;;;;;;21.74;100.00;101521.75;11312604;26;20001;-85
2024/04/12 17:09:21;;;;;;;24.05;9.38;;;;;;;21.73;100.00;101522.66;11337102;26;20002;-89
2024/04/12 17:14:47;;;;;;;26.65;9.60;;;;;;;21.68;100.00;101519.19;11272921;26;20006;-87
2024/04/12 17:20:12;;;;;;;29.60;10.55;;;;;;;21.32;100.00;101513.53;11297550;26;20003;-90
2024/04/12 17:25:43;;;;;;;23.20;8.85;;;;;;;21.00;100.00;101531.94;11264189;26;20002;-85
2024/04/12 17:31:09;;;;;;;35.17;13.98;;;;;;;20.66;100.00;101534.19;11317986;26;20014;-88
2024/04/12 17:36:33;;;;;;;26.40;9.95;;;;;;;20.41;100.00;101528.28;11343448;26;20079;-87
2024/04/12 17:42:00;;;;;;;28.70;10.20;;;;;;;20.41;100.00;101543.47;11328849;26;20512;-90
2024/04/12 17:47:25;;;;;;;29.52;10.00;;;;;;;20.42;100.00;101535.38;11289731;26;20042;-87
2024/04/12 17:52:50;;;;;;;24.58;9.73;;;;;;;20.49;100.00;101545.13;11251631;26;20027;-89
2024/04/12 17:58:18;;;;;;;24.77;9.60;;;;;;;20.64;100.00;101550.31;11282807;26;20010;-91
2024/04/12 18:03:43;;;;;;;30.80;9.80;;;;;;;20.71;100.00;101553.81;11333940;26;20005;-88
2024/04/12 18:09:08;;;;;;;25.00;10.32;;;;;;;20.78;100.00;101555.50;11304438;26;20555;-93
2024/04/12 18:14:37;;;;;;;29.87;10.17;;;;;;;20.85;100.00;101556.31;11313902;26;19998;-87
2024/04/12 18:20:02;;;;;;;32.47;11.23;;;;;;;20.81;100.00;101551.88;11329070;26;20652;-91
2024/04/12 18:25:30;;;;;;;32.03;10.68;;;;;;;20.72;100.00;101565.44;11310087;26;20080;-91
2024/04/12 18:30:59;;;;;;;30.98;10.68;;;;;;;20.64;100.00;101562.84;11351158;26;19998;-90
2024/04/12 18:36:24;;;;;;;30.30;11.32;;;;;;;20.54;100.00;101570.13;11314697;26;20386;-88
2024/04/12 18:47:36;;;;;;;22.73;9.32;;;;;;;20.51;100.00;101566.59;11410814;26;20012;-93
2024/04/12 18:53:00;;;;;;;28.33;10.48;;;;;;;20.41;100.00;101573.88;11345391;26;20002;-94
2024/04/12 18:58:24;;;;;;;31.98;13.88;;;;;;;20.17;100.00;101572.31;11318327;26;19998;-92
2024/04/12 19:03:54;;;;;;;28.85;11.68;;;;;;;20.08;100.00;101568.84;11366427;26;20012;-94
2024/04/12 19:09:20;;;;;;;28.08;11.50;;;;;;;20.11;100.00;101571.47;11306835;26;20474;-87
2024/04/12 19:14:45;;;;;;;23.35;10.57;;;;;;;20.08;100.00;101574.22;11317729;26;20022;-91
2024/04/12 19:20:18;;;;;;;25.67;11.30;;;;;;;20.05;100.00;101583.16;11360670;26;20030;-90
2024/04/12 19:25:43;;;;;;;31.25;11.18;;;;;;;19.76;100.00;101583.44;11330839;26;20009;-91
2024/04/12 19:31:10;;;;;;;27.60;10.70;;;;;;;19.74;100.00;101585.25;11328348;26;20002;-90
2024/04/12 19:36:43;;;;;;;23.20;10.13;;;;;;;19.75;100.00;101584.38;11289345;26;20450;-84
2024/04/12 19:42:09;;;;;;;22.75;10.10;;;;;;;19.61;100.00;101583.59;11289429;26;20079;-88
2024/04/12 19:47:35;;;;;;;25.30;10.05;;;;;;;19.54;100.00;101587.22;11228871;26;20606;-88
2024/04/12 19:53:02;;;;;;;27.13;9.60;;;;;;;19.58;100.00;101588.06;11239029;26;20071;-88
2024/04/12 19:58:27;;;;;;;25.25;9.90;;;;;;;19.49;100.00;101597.09;11281282;26;20018;-88
2024/04/12 20:03:51;;;;;;;25.73;11.55;;;;;;;19.45;100.00;101596.16;11272007;26;20009;-90
2024/04/12 20:09:18;;;;;;;44.65;27.45;;;;;;;19.15;100.00;101596.38;11270563;26;20179;-91
2024/04/12 20:14:43;;;;;;;35.97;21.17;;;;;;;18.99;100.00;101592.00;11242449;26;20006;-94
2024/04/12 20:20:09;;;;;;;27.40;11.65;;;;;;;18.93;100.00;101587.59;11254233;26;20251;-87
2024/04/12 20:25:36;;;;;;;27.25;11.70;;;;;;;18.83;100.00;101585.88;11244161;26;20019;-87
2024/04/12 20:31:15;;;;;;;22.27;11.07;;;;;;;18.74;100.00;101591.25;11301634;26;20012;-87
2024/04/12 20:36:41;;;;;;;20.60;9.73;;;;;;;18.32;100.00;101577.09;11275762;26;20003;-87
2024/04/12 20:42:08;;;;;;;25.55;11.15;;;;;;;18.30;100.00;101581.59;11250977;26;20003;-89
2024/04/12 20:47:32;;;;;;;21.13;9.80;;;;;;;18.34;100.00;101574.44;11226788;26;20068;-86
2024/04/12 20:52:59;;;;;;;24.40;10.65;;;;;;;18.14;100.00;101563.81;11255504;26;19994;-87
2024/04/12 20:58:28;;;;;;;31.73;11.60;;;;;;;17.85;100.00;101568.31;11282207;26;20381;-88
2024/04/12 21:03:52;;;;;;;20.02;10.38;;;;;;;17.82;100.00;101563.88;11249224;26;20083;-87
2024/04/12 21:09:17;;;;;;;22.30;10.82;;;;;;;17.80;100.00;101565.63;11226164;26;20452;-87
2024/04/12 21:14:46;;;;;;;29.23;10.30;;;;;;;17.77;100.00;101562.09;11247514;26;20013;-88
2024/04/12 21:20:15;;;;;;;19.35;9.00;;;;;;;17.76;100.00;101558.53;11248908;26;20002;-87
2024/04/12 21:25:39;;;;;;;19.70;10.10;;;;;;;17.64;100.00;101553.22;11309022;26;19998;-85
2024/04/12 21:31:07;;;;;;;19.90;10.23;;;;;;;17.58;100.00;101550.50;11314146;26;20020;-87
2024/04/12 21:36:31;;;;;;;26.02;10.60;;;;;;;17.57;100.00;101547.84;11254252;26;20006;-86
2024/04/12 21:41:56;;;;;;;23.83;10.52;;;;;;;17.44;100.00;101552.28;11309114;26;20013;-87
2024/04/12 21:47:23;;;;;;;23.38;10.35;;;;;;;17.44;100.00;101552.28;11272803;26;20003;-86
2024/04/12 21:52:47;;;;;;;22.90;9.70;;;;;;;17.27;100.00;101544.25;11313229;26;20405;-89
2024/04/12 21:58:11;;;;;;;21.95;10.13;;;;;;;17.20;100.00;101539.78;11349972;26;20034;-86
2024/04/12 22:03:39;;;;;;;25.85;10.63;;;;;;;17.18;100.00;101548.72;11298572;26;19998;-87
2024/04/12 22:09:03;;;;;;;20.73;9.90;;;;;;;17.08;100.00;101546.00;11298497;26;20092;-88
2024/04/12 22:14:27;;;;;;;18.10;9.43;;;;;;;17.01;100.00;101541.56;11301041;26;20590;-86
2024/04/12 22:19:55;;;;;;;17.52;9.23;;;;;;;17.00;100.00;101545.09;11271234;26;20012;-87
2024/04/12 22:25:20;;;;;;;19.30;9.65;;;;;;;16.94;100.00;101547.75;11234350;26;20068;-87
2024/04/12 22:30:44;;;;;;;21.13;9.38;;;;;;;16.88;100.00;101550.41;11248244;26;20455;-86
2024/04/12 22:36:13;;;;;;;22.17;9.60;;;;;;;16.84;100.00;101545.97;11275291;26;20014;-88
2024/04/12 22:41:37;;;;;;;22.67;9.73;;;;;;;16.81;100.00;101537.94;11296726;26;20497;-85
2024/04/12 22:47:01;;;;;;;18.60;9.63;;;;;;;16.77;100.00;101533.50;11329046;26;20002;-87
2024/04/12 22:52:28;;;;;;;22.73;9.40;;;;;;;16.69;100.00;101528.16;11327879;26;20006;-85
2024/04/12 22:57:53;;;;;;;15.02;9.35;;;;;;;16.67;100.00;101523.72;11305564;26;20328;-86
2024/04/12 23:03:18;;;;;;;19.70;10.02;;;;;;;16.65;100.00;101523.72;11251012;26;20002;-87
2024/04/12 23:08:46;;;;;;;18.83;9.68;;;;;;;16.63;100.00;101509.47;11313505;26;20010;-86
2024/04/12 23:14:11;;;;;;;18.65;9.70;;;;;;;16.53;100.00;101512.97;11326023;26;20002;-87
2024/04/12 23:19:35;;;;;;;19.40;9.20;;;;;;;16.41;100.00;101504.91;11244816;26;20075;-87
2024/04/12 23:25:04;;;;;;;18.42;9.07;;;;;;;16.37;100.00;101513.78;11281527;26;20030;-87
2024/04/12 23:30:28;;;;;;;22.77;9.98;;;;;;;16.33;100.00;101507.56;11306839;26;20005;-86
2024/04/12 23:35:53;;;;;;;22.05;10.25;;;;;;;16.23;100.00;101496.84;11281334;26;20009;-87
2024/04/12 23:41:20;;;;;;;18.77;9.90;;;;;;;16.01;100.00;101492.31;11267466;26;20017;-87
2024/04/12 23:46:44;;;;;;;20.00;10.93;;;;;;;16.05;100.00;101494.09;11273287;26;20080;-87
2024/04/12 23:52:09;;;;;;;19.45;9.70;;;;;;;16.08;100.00;101494.13;11271606;26;20015;-87
2024/04/12 23:57:36;;;;;;;19.70;10.13;;;;;;;16.06;100.00;101495.91;11258727;26;20003;-86
